Time;durP1;ratioP1;P1;durP2;ratioP2;P2;SDS_P1;SDS_P2;PMS_P1;PMS_P2;Temp;Humidity;BMP_temperature;BMP_pressure;BME280_temperature;BME280_humidity;BME280_pressure;Samples;Min_cycle;Max_cycle;Signal;HPM_P1;HPM_P2
2022/12/04 00:01:49;;;;;;;22.77;14.55;;;3.00;99.90;;;;;;4954272;28;20463;-51
2022/12/04 00:04:14;;;;;;;22.98;14.13;;;3.00;99.90;;;;;;4965480;28;20511;-55
2022/12/04 00:06:40;;;;;;;20.88;14.05;;;3.00;99.90;;;;;;4935130;29;20086;-51
2022/12/04 00:09:05;;;;;;;24.25;15.23;;;3.00;99.90;;;;;;4935455;29;20020;-51
2022/12/04 00:11:32;;;;;;;19.80;13.65;;;3.00;99.90;;;;;;4935183;29;20027;-55
2022/12/04 00:13:58;;;;;;;22.10;14.38;;;3.00;99.90;;;;;;4934302;28;20034;-54
2022/12/04 00:16:26;;;;;;;22.25;13.77;;;3.00;99.90;;;;;;4934800;29;20103;-47
2022/12/04 00:18:52;;;;;;;20.95;12.98;;;2.90;99.90;;;;;;4934872;29;20031;-50
2022/12/04 00:21:19;;;;;;;19.90;13.88;;;3.00;99.90;;;;;;4934615;29;20475;-49
2022/12/04 00:23:46;;;;;;;23.65;15.32;;;3.00;99.90;;;;;;4933964;29;20027;-51
2022/12/04 00:26:14;;;;;;;22.73;14.52;;;3.00;99.90;;;;;;4934590;29;20038;-52
2022/12/04 00:28:40;;;;;;;21.38;14.68;;;3.10;99.90;;;;;;4934635;29;20031;-52
2022/12/04 00:31:12;;;;;;;20.92;14.85;;;3.00;99.90;;;;;;4935168;29;20032;-55
2022/12/04 00:33:37;;;;;;;22.30;15.25;;;3.00;99.90;;;;;;4933319;29;20154;-52
2022/12/04 00:36:06;;;;;;;22.42;15.32;;;3.00;99.90;;;;;;4933671;29;20055;-50
2022/12/04 00:38:32;;;;;;;25.02;14.82;;;3.00;99.90;;;;;;4934544;29;20559;-50
2022/12/04 00:40:59;;;;;;;19.05;14.13;;;3.00;99.90;;;;;;4934980;29;20100;-53
2022/12/04 00:43:26;;;;;;;26.65;14.60;;;3.00;99.90;;;;;;4934209;29;20017;-48
2022/12/04 00:45:52;;;;;;;23.00;15.13;;;3.00;99.90;;;;;;4949468;29;20090;-50
2022/12/04 00:48:17;;;;;;;22.38;14.30;;;3.00;99.90;;;;;;4934597;29;20532;-51
2022/12/04 00:50:43;;;;;;;23.45;14.93;;;3.00;99.90;;;;;;4934597;29;20034;-53
2022/12/04 00:53:09;;;;;;;25.00;16.10;;;3.10;99.90;;;;;;4933399;29;20032;-55
2022/12/04 00:55:37;;;;;;;23.45;15.15;;;3.00;99.90;;;;;;4934372;29;20035;-54
2022/12/04 00:58:03;;;;;;;25.05;14.68;;;3.10;99.90;;;;;;4934150;29;20030;-53
2022/12/04 01:00:29;;;;;;;22.77;14.40;;;3.10;99.90;;;;;;4934298;29;20024;-49
2022/12/04 01:02:54;;;;;;;21.73;15.40;;;3.00;99.90;;;;;;4933717;29;20024;-52
2022/12/04 01:05:20;;;;;;;23.00;14.57;;;3.00;99.90;;;;;;4934062;29;20032;-55
2022/12/04 01:07:45;;;;;;;23.83;14.32;;;3.00;99.90;;;;;;4934090;29;20476;-56
2022/12/04 01:10:12;;;;;;;20.92;15.07;;;3.00;99.90;;;;;;4948926;28;20031;-50
2022/12/04 01:12:37;;;;;;;21.60;13.65;;;3.00;99.90;;;;;;4948176;29;20094;-54
2022/12/04 01:15:03;;;;;;;19.80;12.73;;;3.00;99.90;;;;;;4948846;28;20027;-52
2022/12/04 01:17:29;;;;;;;20.40;13.02;;;3.00;99.90;;;;;;4933981;29;20081;-49
2022/12/04 01:19:54;;;;;;;23.25;14.65;;;3.00;99.90;;;;;;4934248;29;20028;-50
2022/12/04 01:22:20;;;;;;;19.63;14.02;;;3.00;99.90;;;;;;4933335;29;20095;-51
2022/12/04 01:24:45;;;;;;;18.75;13.15;;;3.00;99.90;;;;;;4934033;29;20047;-49
2022/12/04 01:27:11;;;;;;;21.17;13.45;;;3.00;99.90;;;;;;4933959;29;20046;-48
2022/12/04 01:29:37;;;;;;;19.30;14.18;;;3.00;99.90;;;;;;4934155;29;20492;-53
2022/12/04 01:32:02;;;;;;;16.35;12.00;;;2.90;99.90;;;;;;4933334;29;20424;-51
2022/12/04 01:34:28;;;;;;;21.50;14.85;;;2.90;99.90;;;;;;4932129;29;20104;-49
2022/12/04 01:36:54;;;;;;;19.58;13.57;;;2.90;99.90;;;;;;4933766;29;20401;-50
2022/12/04 01:39:19;;;;;;;18.30;13.45;;;3.00;99.90;;;;;;4933943;29;20028;-52
2022/12/04 01:41:45;;;;;;;21.83;14.82;;;3.00;99.90;;;;;;4948522;28;20353;-50
2022/12/04 01:44:13;;;;;;;19.88;13.23;;;3.00;99.90;;;;;;4948301;28;20024;-50
2022/12/04 01:46:40;;;;;;;19.27;13.80;;;3.00;99.90;;;;;;4937412;29;20028;-53
2022/12/04 01:49:10;;;;;;;17.00;12.73;;;2.90;99.90;;;;;;4937213;29;20028;-51
2022/12/04 01:51:41;;;;;;;16.45;12.45;;;2.90;99.90;;;;;;4937353;29;20476;-50
2022/12/04 01:54:21;;;;;;;16.23;12.20;;;2.90;99.90;;;;;;4936513;29;20027;-51
2022/12/04 01:56:53;;;;;;;17.33;12.27;;;2.90;99.90;;;;;;4937144;29;20016;-54
2022/12/04 01:59:25;;;;;;;18.52;12.45;;;2.90;99.90;;;;;;4937081;29;20404;-51
2022/12/04 02:02:05;;;;;;;20.30;12.88;;;2.90;99.90;;;;;;4936912;29;20041;-52
2022/12/04 02:04:33;;;;;;;15.95;12.30;;;3.00;99.90;;;;;;4937181;29;20397;-53
2022/12/04 02:06:58;;;;;;;19.10;12.50;;;3.00;99.90;;;;;;4937082;29;20030;-51
2022/12/04 02:09:24;;;;;;;18.48;12.73;;;2.90;99.90;;;;;;4937166;29;20032;-51
2022/12/04 02:12:12;;;;;;;15.18;11.25;;;3.00;99.90;;;;;;4936641;29;20415;-47
2022/12/04 02:15:01;;;;;;;15.00;11.32;;;3.00;99.90;;;;;;4951947;28;20035;-48
2022/12/04 02:18:01;;;;;;;17.15;12.43;;;3.00;99.90;;;;;;4936715;29;20039;-53
2022/12/04 02:20:29;;;;;;;17.10;11.65;;;3.00;99.90;;;;;;4951521;29;20038;-53
2022/12/04 02:23:42;;;;;;;18.42;12.10;;;3.00;99.90;;;;;;4950740;28;20400;-51
2022/12/04 02:26:43;;;;;;;18.45;12.10;;;3.00;99.90;;;;;;4915451;29;20028;-57
2022/12/04 02:29:08;;;;;;;16.42;11.45;;;3.00;99.90;;;;;;4896151;29;20044;-53
2022/12/04 02:31:40;;;;;;;17.00;12.73;;;3.00;99.90;;;;;;4931676;29;20108;-50
2022/12/04 02:34:13;;;;;;;18.75;12.40;;;3.00;99.90;;;;;;4936135;29;20122;-53
2022/12/04 02:36:52;;;;;;;19.05;11.80;;;3.00;99.90;;;;;;4935515;29;20024;-51
2022/12/04 02:39:45;;;;;;;17.23;10.73;;;3.00;99.90;;;;;;4936711;29;20032;-52
2022/12/04 02:42:16;;;;;;;14.85;10.73;;;3.00;99.90;;;;;;4935783;29;20036;-50
2022/12/04 02:44:49;;;;;;;16.77;10.85;;;3.00;99.90;;;;;;4936310;29;20027;-49
2022/12/04 02:47:18;;;;;;;16.67;10.45;;;3.00;99.90;;;;;;4936279;29;20036;-51
2022/12/04 02:49:49;;;;;;;14.73;11.07;;;3.00;99.90;;;;;;4936525;29;20087;-50
2022/12/04 02:52:19;;;;;;;18.60;11.75;;;3.00;99.90;;;;;;4935646;29;20111;-52
2022/12/04 02:54:51;;;;;;;16.77;11.80;;;3.00;99.90;;;;;;4936081;29;20071;-49
2022/12/04 02:57:24;;;;;;;17.33;12.70;;;3.00;99.90;;;;;;4935313;29;20038;-50
2022/12/04 02:59:52;;;;;;;17.75;12.23;;;3.00;99.90;;;;;;4936403;29;20480;-50
2022/12/04 03:02:26;;;;;;;17.70;12.23;;;3.00;99.90;;;;;;4935400;29;20024;-51
2022/12/04 03:04:55;;;;;;;17.10;12.23;;;3.10;99.90;;;;;;4950719;28;20024;-52
2022/12/04 03:07:38;;;;;;;17.05;12.07;;;3.10;99.90;;;;;;4950525;28;20028;-48
2022/12/04 03:10:20;;;;;;;18.35;12.27;;;3.10;99.90;;;;;;4935895;29;20040;-50
2022/12/04 03:12:56;;;;;;;17.80;11.75;;;3.10;99.90;;;;;;4935175;29;20034;-51
2022/12/04 03:15:28;;;;;;;18.08;12.20;;;3.00;99.90;;;;;;4935805;29;20039;-49
2022/12/04 03:18:13;;;;;;;17.13;12.15;;;3.10;99.90;;;;;;4935683;29;20036;-48
2022/12/04 03:20:41;;;;;;;16.80;11.73;;;3.00;99.90;;;;;;4935860;29;20555;-51
2022/12/04 03:23:14;;;;;;;18.98;12.80;;;3.00;99.90;;;;;;4935094;29;20500;-48
2022/12/04 03:25:50;;;;;;;17.92;12.68;;;3.10;99.90;;;;;;4935931;29;20262;-51
2022/12/04 03:28:21;;;;;;;;;;;3.10;99.90;;;;;;4936115;29;20075;-53
2022/12/04 03:30:55;;;;;;;16.42;11.93;;;3.00;99.90;;;;;;4935617;29;19906;-48
2022/12/04 03:33:30;;;;;;;15.25;11.02;;;3.00;99.90;;;;;;4949534;29;20027;-51
2022/12/04 03:36:02;;;;;;;18.25;13.18;;;3.10;99.90;;;;;;4933981;29;20020;-50
2022/12/04 03:38:47;;;;;;;18.88;12.43;;;3.10;99.90;;;;;;4935260;29;20111;-51
2022/12/04 03:41:39;;;;;;;19.53;13.30;;;3.10;99.90;;;;;;4935450;29;20480;-49
2022/12/04 03:44:14;;;;;;;19.15;12.88;;;3.10;99.90;;;;;;4930674;29;20294;-47
2022/12/04 03:46:53;;;;;;;18.40;11.60;;;3.00;99.90;;;;;;4935264;29;20504;-52
2022/12/04 03:49:18;;;;;;;17.42;11.38;;;3.00;99.90;;;;;;4935131;29;20031;-50
2022/12/04 03:51:53;;;;;;;19.20;12.88;;;3.00;99.90;;;;;;4949891;28;20071;-49
2022/12/04 03:54:33;;;;;;;17.65;11.82;;;3.00;99.90;;;;;;4934758;29;20054;-52
2022/12/04 03:57:07;;;;;;;15.80;11.32;;;2.90;99.90;;;;;;4935319;29;20063;-51
2022/12/04 03:59:40;;;;;;;19.45;12.18;;;2.90;99.90;;;;;;4935476;29;20197;-48
2022/12/04 04:02:12;;;;;;;18.02;12.63;;;2.90;99.90;;;;;;4934296;29;20034;-47
2022/12/04 04:04:40;;;;;;;17.80;12.13;;;3.00;99.90;;;;;;4934735;29;20023;-48
2022/12/04 04:07:33;;;;;;;17.30;11.88;;;3.00;99.90;;;;;;4934836;29;20400;-48
2022/12/04 04:10:04;;;;;;;18.98;12.10;;;3.00;99.90;;;;;;4929774;29;20126;-48
2022/12/04 04:12:35;;;;;;;17.80;12.57;;;3.10;99.90;;;;;;4933995;29;20035;-49
2022/12/04 04:26:16;;;;;;;19.48;12.88;;;3.00;99.90;;;;;;4934658;29;20094;-49
2022/12/04 04:28:42;;;;;;;20.00;13.18;;;3.10;99.90;;;;;;4934576;29;20115;-53
2022/12/04 04:31:36;;;;;;;17.95;12.25;;;3.20;99.90;;;;;;4949180;29;20110;-49
2022/12/04 04:34:24;;;;;;;16.85;11.27;;;3.20;99.90;;;;;;4933803;29;20476;-50
2022/12/04 04:36:57;;;;;;;17.65;12.10;;;3.30;99.90;;;;;;4932653;29;20055;-50
2022/12/04 04:39:48;;;;;;;17.88;12.52;;;3.20;99.90;;;;;;4934524;29;20397;-50
2022/12/04 04:42:21;;;;;;;17.77;11.93;;;3.20;99.90;;;;;;4923795;29;20039;-48
2022/12/04 04:44:52;;;;;;;21.40;12.90;;;3.10;99.90;;;;;;4934329;29;20472;-50
2022/12/04 04:47:40;;;;;;;16.58;10.82;;;3.20;99.90;;;;;;4934935;29;20038;-49
2022/12/04 04:50:08;;;;;;;21.15;13.57;;;3.10;99.90;;;;;;4934906;29;20118;-49
2022/12/04 04:52:37;;;;;;;16.33;11.82;;;3.00;99.90;;;;;;4933889;29;20031;-51
2022/12/04 04:55:03;;;;;;;17.52;11.70;;;3.10;99.90;;;;;;4934245;29;20042;-49
2022/12/04 04:57:32;;;;;;;20.67;12.90;;;3.10;99.90;;;;;;4948757;28;20036;-53
2022/12/04 04:59:58;;;;;;;18.55;12.45;;;3.00;99.90;;;;;;4934797;29;20020;-52
2022/12/04 05:02:25;;;;;;;16.95;11.00;;;3.00;99.90;;;;;;4933784;29;20020;-50
2022/12/04 05:04:50;;;;;;;13.52;10.10;;;3.00;99.90;;;;;;4934290;29;20034;-52
2022/12/04 05:07:16;;;;;;;17.35;11.38;;;3.00;99.90;;;;;;4934339;29;20496;-49
2022/12/04 05:09:41;;;;;;;19.25;11.60;;;3.00;99.90;;;;;;4934272;29;20535;-50
2022/12/04 05:12:07;;;;;;;19.48;11.18;;;3.00;99.90;;;;;;4933468;29;20481;-50
2022/12/04 05:14:33;;;;;;;15.13;10.98;;;3.00;99.90;;;;;;4948609;28;20082;-48
2022/12/04 05:16:58;;;;;;;19.05;11.55;;;3.00;99.90;;;;;;4934291;29;20027;-54
2022/12/04 05:22:08;;;;;;;16.73;10.68;;;3.00;99.90;;;;;;4937193;29;20034;-50
2022/12/04 05:24:34;;;;;;;16.60;11.38;;;3.00;99.90;;;;;;4937936;29;20028;-50
2022/12/04 05:26:59;;;;;;;14.63;10.98;;;3.00;99.90;;;;;;4937847;29;20031;-53
2022/12/04 05:29:24;;;;;;;14.10;9.98;;;3.00;99.90;;;;;;4938425;29;20087;-56
2022/12/04 05:31:50;;;;;;;19.95;10.57;;;3.10;99.90;;;;;;4940162;29;20031;-51
2022/12/04 05:34:15;;;;;;;15.95;10.48;;;3.10;99.90;;;;;;4937869;29;20137;-51
2022/12/04 05:36:41;;;;;;;15.50;10.65;;;3.10;99.90;;;;;;4936625;29;20035;-54
2022/12/04 05:39:07;;;;;;;14.57;10.18;;;3.10;99.90;;;;;;4952316;28;20031;-53
2022/12/04 05:41:32;;;;;;;17.38;11.55;;;3.20;99.90;;;;;;4952425;28;20034;-53
2022/12/04 05:43:58;;;;;;;17.42;10.85;;;3.10;99.90;;;;;;4936648;29;20024;-52
2022/12/04 05:46:23;;;;;;;16.23;10.23;;;3.10;99.90;;;;;;4937734;29;20035;-55
2022/12/04 05:48:49;;;;;;;15.65;10.30;;;3.10;99.90;;;;;;4952998;29;20038;-54
2022/12/04 05:51:14;;;;;;;12.95;9.55;;;3.10;99.90;;;;;;4938023;29;20038;-51
2022/12/04 05:53:40;;;;;;;14.93;9.57;;;3.10;99.90;;;;;;4962506;23;20510;-48
2022/12/04 05:56:06;;;;;;;17.10;10.52;;;3.10;99.90;;;;;;4993370;28;20058;-47
2022/12/04 05:58:35;;;;;;;15.25;10.23;;;3.10;99.90;;;;;;4995006;28;20117;-44
2022/12/04 06:01:17;;;;;;;20.42;11.93;;;3.10;99.90;;;;;;4995491;28;20022;-51
2022/12/04 06:03:43;;;;;;;20.17;11.30;;;3.10;99.90;;;;;;4994356;28;20054;-49
2022/12/04 06:06:18;;;;;;;23.90;13.15;;;3.10;99.90;;;;;;4995017;28;20065;-52
2022/12/04 06:08:44;;;;;;;29.75;13.80;;;3.00;99.90;;;;;;4994931;28;20121;-49
2022/12/04 06:11:11;;;;;;;25.00;14.13;;;2.90;99.90;;;;;;5010297;28;20109;-49
2022/12/04 06:13:38;;;;;;;22.90;13.02;;;3.00;99.90;;;;;;4994069;28;20034;-45
2022/12/04 06:16:04;;;;;;;28.75;15.80;;;2.90;99.90;;;;;;4994917;28;20034;-48
2022/12/04 06:18:29;;;;;;;26.70;14.48;;;2.80;99.90;;;;;;4994721;28;20026;-49
2022/12/04 06:20:57;;;;;;;25.48;14.80;;;2.80;99.90;;;;;;4994622;28;20340;-45
2022/12/04 06:23:23;;;;;;;26.88;15.43;;;2.70;99.90;;;;;;4993982;28;20029;-41
2022/12/04 06:25:48;;;;;;;28.17;14.10;;;2.60;99.90;;;;;;4994555;28;20117;-46
2022/12/04 06:28:14;;;;;;;25.95;15.13;;;2.60;99.90;;;;;;5009929;28;20030;-49
2022/12/04 06:30:39;;;;;;;24.42;14.35;;;2.60;99.90;;;;;;5008848;28;20049;-46
2022/12/04 06:33:05;;;;;;;24.20;14.57;;;2.60;99.90;;;;;;4993704;28;20030;-48
2022/12/04 06:35:30;;;;;;;31.50;15.25;;;2.70;99.90;;;;;;4993496;28;20057;-48
2022/12/04 06:37:56;;;;;;;30.02;16.35;;;2.70;99.90;;;;;;4994329;28;20037;-52
2022/12/04 06:40:21;;;;;;;26.63;13.77;;;2.60;99.90;;;;;;4994556;28;20107;-49
2022/12/04 06:42:47;;;;;;;28.77;15.73;;;2.60;99.90;;;;;;4993676;28;20023;-51
2022/12/04 06:45:12;;;;;;;24.77;15.10;;;2.60;99.90;;;;;;4994302;28;20030;-46
2022/12/04 06:47:38;;;;;;;27.50;14.85;;;2.60;99.90;;;;;;4994446;28;20029;-47
2022/12/04 06:50:04;;;;;;;24.58;14.07;;;2.60;99.90;;;;;;4994337;28;20509;-47
2022/12/04 06:52:32;;;;;;;28.02;14.32;;;2.60;99.90;;;;;;4993516;28;20026;-47
2022/12/04 06:54:58;;;;;;;27.98;14.18;;;2.50;99.90;;;;;;4994009;28;20463;-50
2022/12/04 06:57:23;;;;;;;28.02;15.57;;;2.60;99.90;;;;;;4993735;28;20105;-45
2022/12/04 06:59:49;;;;;;;27.13;14.65;;;2.50;99.90;;;;;;5009237;28;20057;-48
2022/12/04 07:02:14;;;;;;;25.05;14.20;;;2.50;99.90;;;;;;4993729;28;20030;-45
2022/12/04 07:04:40;;;;;;;27.38;14.27;;;2.60;99.90;;;;;;4994271;28;20026;-47
2022/12/04 07:07:08;;;;;;;26.17;14.57;;;2.60;99.90;;;;;;4994290;28;20037;-44
2022/12/04 07:09:34;;;;;;;27.02;15.02;;;2.60;99.90;;;;;;4994331;28;20545;-44
2022/12/04 07:12:00;;;;;;;23.52;14.13;;;2.60;99.90;;;;;;4993571;28;20109;-47
2022/12/04 07:14:25;;;;;;;27.45;15.05;;;2.50;99.90;;;;;;4993944;28;20114;-45
2022/12/04 07:16:51;;;;;;;27.17;14.35;;;2.40;99.90;;;;;;4993656;28;20062;-43
2022/12/04 07:19:16;;;;;;;27.00;14.07;;;2.50;99.90;;;;;;4993927;28;20034;-41
2022/12/04 07:21:42;;;;;;;27.25;14.68;;;2.50;99.90;;;;;;4993868;28;20030;-54
2022/12/04 07:24:13;;;;;;;28.05;14.93;;;2.50;99.90;;;;;;4992882;28;20064;-52
2022/12/04 07:26:39;;;;;;;27.05;15.10;;;2.50;99.90;;;;;;4993527;28;20466;-51
2022/12/04 07:29:04;;;;;;;22.27;12.82;;;2.50;99.90;;;;;;4995096;28;20061;-42
2022/12/04 07:31:30;;;;;;;25.92;14.48;;;2.50;99.90;;;;;;5008840;28;20026;-48
2022/12/04 07:33:56;;;;;;;28.60;15.57;;;2.40;99.90;;;;;;4992796;28;20034;-47
2022/12/04 07:36:23;;;;;;;23.10;14.10;;;2.40;99.90;;;;;;4991737;28;20022;-47
2022/12/04 07:38:49;;;;;;;29.42;15.43;;;2.50;99.90;;;;;;4993713;28;20023;-48
2022/12/04 07:41:15;;;;;;;25.00;14.48;;;2.40;99.90;;;;;;4993899;28;20033;-46
2022/12/04 07:43:41;;;;;;;24.55;13.40;;;2.40;99.90;;;;;;4992623;28;20018;-46
2022/12/04 07:46:12;;;;;;;23.42;13.82;;;2.40;99.90;;;;;;4993492;28;20101;-47
2022/12/04 07:48:37;;;;;;;26.45;14.45;;;2.40;99.90;;;;;;4993388;28;20060;-51
2022/12/04 07:51:16;;;;;;;26.92;14.32;;;2.50;99.90;;;;;;4993260;28;20066;-46
2022/12/04 07:53:41;;;;;;;28.88;15.45;;;2.50;99.90;;;;;;4992489;28;20033;-45
2022/12/04 07:56:08;;;;;;;26.85;14.80;;;2.50;99.90;;;;;;4993182;28;20034;-50
2022/12/04 07:58:34;;;;;;;25.08;13.40;;;2.50;99.90;;;;;;5008120;28;20060;-50
2022/12/04 08:01:17;;;;;;;27.63;16.70;;;2.40;99.90;;;;;;4993629;28;20113;-49
2022/12/04 08:03:45;;;;;;;29.45;15.40;;;2.40;99.90;;;;;;4992134;28;20393;-43
2022/12/04 08:06:11;;;;;;;28.17;15.90;;;2.30;99.90;;;;;;4993200;28;20019;-51
2022/12/04 08:08:37;;;;;;;25.38;15.30;;;2.40;99.90;;;;;;4993144;28;20042;-47
2022/12/04 08:11:07;;;;;;;22.45;12.88;;;2.40;99.90;;;;;;4993275;28;20556;-52
2022/12/04 08:13:33;;;;;;;24.13;15.38;;;2.30;99.90;;;;;;4992410;28;20117;-49
2022/12/04 08:16:07;;;;;;;23.05;14.15;;;2.30;99.90;;;;;;4992966;28;20481;-44
2022/12/04 08:18:33;;;;;;;29.08;14.23;;;2.40;99.90;;;;;;4993068;28;20027;-49
2022/12/04 08:21:04;;;;;;;27.83;14.90;;;2.40;99.90;;;;;;4992922;28;20026;-48
2022/12/04 08:23:29;;;;;;;22.45;13.63;;;2.30;99.90;;;;;;4992171;28;20026;-48
2022/12/04 08:25:58;;;;;;;24.10;14.15;;;2.30;99.90;;;;;;4992807;28;20395;-47
2022/12/04 08:28:24;;;;;;;23.75;14.27;;;2.40;99.90;;;;;;4992758;28;20094;-47
2022/12/04 08:30:49;;;;;;;25.40;13.95;;;2.40;99.90;;;;;;4993109;28;20065;-51
2022/12/04 08:33:15;;;;;;;27.75;14.18;;;2.40;99.90;;;;;;4992707;28;20086;-47
2022/12/04 08:35:40;;;;;;;25.27;14.05;;;2.40;99.90;;;;;;4993092;28;20030;-47
2022/12/04 08:38:06;;;;;;;26.27;14.27;;;2.30;99.90;;;;;;4992918;28;20038;-46
2022/12/04 08:40:32;;;;;;;26.63;13.63;;;2.30;99.90;;;;;;4992526;28;20027;-52
2022/12/04 08:42:57;;;;;;;26.77;14.57;;;2.40;99.90;;;;;;4991845;28;20022;-50
2022/12/04 08:45:23;;;;;;;20.40;13.00;;;2.30;99.90;;;;;;4992677;28;20034;-50
2022/12/04 08:47:48;;;;;;;26.20;13.73;;;2.20;99.90;;;;;;4992618;28;20383;-47
2022/12/04 08:50:14;;;;;;;23.25;12.98;;;2.20;99.90;;;;;;4992443;28;20034;-41
2022/12/04 08:52:39;;;;;;;25.60;13.48;;;2.20;99.90;;;;;;4992413;28;20030;-46
2022/12/04 08:55:05;;;;;;;23.77;13.75;;;2.20;99.90;;;;;;4991701;28;20042;-46
2022/12/04 08:57:31;;;;;;;25.85;13.70;;;2.30;99.90;;;;;;4992282;28;20037;-47
2022/12/04 08:59:56;;;;;;;30.38;15.57;;;2.30;99.90;;;;;;4993405;28;20506;-44
2022/12/04 09:02:22;;;;;;;25.33;14.52;;;2.20;99.90;;;;;;5008190;28;20033;-48
2022/12/04 09:04:47;;;;;;;25.85;15.43;;;2.20;99.90;;;;;;4993652;28;20117;-47
2022/12/04 09:07:13;;;;;;;29.60;15.38;;;2.30;99.90;;;;;;4985254;28;20097;-49
2022/12/04 09:09:39;;;;;;;26.45;14.52;;;2.30;99.90;;;;;;4991470;28;20125;-47
2022/12/04 09:12:04;;;;;;;23.83;13.70;;;2.30;99.90;;;;;;4991930;28;20491;-45
2022/12/04 09:14:30;;;;;;;29.27;16.90;;;2.30;99.90;;;;;;4991442;28;20041;-47
2022/12/04 09:16:55;;;;;;;26.10;13.80;;;2.30;99.90;;;;;;4991566;28;20105;-45
2022/12/04 09:19:21;;;;;;;26.20;14.85;;;2.30;99.90;;;;;;4987468;28;20034;-49
2022/12/04 09:21:46;;;;;;;25.90;15.15;;;2.40;99.90;;;;;;4991483;28;20034;-47
2022/12/04 09:24:12;;;;;;;25.85;14.40;;;2.40;99.90;;;;;;4990270;28;20027;-51
2022/12/04 09:26:38;;;;;;;26.67;14.80;;;2.40;99.90;;;;;;4979903;28;20038;-49
2022/12/04 09:29:05;;;;;;;23.83;15.05;;;2.40;99.90;;;;;;4991845;28;20406;-50
2022/12/04 09:31:31;;;;;;;25.42;14.13;;;2.50;99.90;;;;;;4975292;28;20026;-54
2022/12/04 09:33:58;;;;;;;24.63;14.30;;;2.50;99.90;;;;;;4978138;28;20194;-49
2022/12/04 09:36:24;;;;;;;26.83;15.00;;;2.50;99.90;;;;;;4997085;28;20038;-53
2022/12/04 09:38:52;;;;;;;23.75;14.57;;;2.50;99.90;;;;;;4997761;28;20427;-48
2022/12/04 09:41:29;;;;;;;30.42;14.30;;;2.60;99.90;;;;;;4999138;28;20033;-51
2022/12/04 09:44:27;;;;;;;26.48;14.93;;;2.60;99.90;;;;;;4995311;28;20023;-49
2022/12/04 09:47:00;;;;;;;25.98;15.20;;;2.60;99.90;;;;;;4984726;28;20045;-45
2022/12/04 09:49:33;;;;;;;24.80;14.77;;;2.70;99.90;;;;;;5000096;28;20080;-51
2022/12/04 09:52:05;;;;;;;25.25;14.57;;;2.80;99.90;;;;;;4997873;28;20096;-46
2022/12/04 09:54:38;;;;;;;28.13;14.98;;;2.80;99.90;;;;;;4998109;28;20375;-47
2022/12/04 09:57:19;;;;;;;29.52;16.05;;;2.70;99.90;;;;;;4994422;28;20023;-46
2022/12/04 09:59:49;;;;;;;29.63;14.80;;;2.80;99.90;;;;;;4997639;28;20026;-50
2022/12/04 10:02:24;;;;;;;26.08;14.98;;;2.80;99.90;;;;;;4980513;28;20031;-47
2022/12/04 10:04:49;;;;;;;28.52;16.02;;;2.80;99.90;;;;;;4981074;28;20055;-47
2022/12/04 10:07:21;;;;;;;28.73;14.40;;;2.80;99.90;;;;;;4986590;28;20038;-47
2022/12/04 10:10:17;;;;;;;27.70;15.25;;;2.80;99.90;;;;;;4995572;28;20033;-49
2022/12/04 10:13:04;;;;;;;29.48;16.13;;;2.70;99.90;;;;;;5020661;28;20030;-50
2022/12/04 10:15:47;;;;;;;30.15;16.05;;;2.80;99.90;;;;;;5007998;28;20034;-46
2022/12/04 10:18:45;;;;;;;29.13;15.55;;;2.90;99.90;;;;;;5008887;28;20037;-46
2022/12/04 10:21:26;;;;;;;28.77;15.55;;;2.90;99.90;;;;;;5009829;28;20037;-49
2022/12/04 10:24:36;;;;;;;30.15;16.38;;;2.80;99.90;;;;;;5006951;28;20493;-53
2022/12/04 10:27:11;;;;;;;34.70;17.00;;;2.80;99.90;;;;;;4964297;28;20111;-51
2022/12/04 10:29:39;;;;;;;25.73;15.85;;;2.90;99.90;;;;;;4967146;29;20027;-50
2022/12/04 10:32:19;;;;;;;27.98;15.75;;;3.00;99.90;;;;;;4978582;28;20042;-49
2022/12/04 10:34:47;;;;;;;30.38;16.23;;;3.00;99.90;;;;;;4994921;28;20022;-49
2022/12/04 10:37:14;;;;;;;31.17;16.50;;;3.00;99.90;;;;;;5006159;28;20033;-48
2022/12/04 10:39:54;;;;;;;29.23;14.80;;;3.00;99.90;;;;;;5005965;28;20023;-52
2022/12/04 10:42:35;;;;;;;28.05;15.93;;;3.10;99.90;;;;;;5004956;28;20041;-52
2022/12/04 10:45:00;;;;;;;33.90;17.50;;;3.10;99.90;;;;;;5005550;28;20038;-48
2022/12/04 10:47:27;;;;;;;31.70;16.92;;;3.10;99.90;;;;;;4995030;28;20038;-51
2022/12/04 10:49:59;;;;;;;31.73;16.20;;;3.10;99.90;;;;;;4983804;28;20023;-49
2022/12/04 10:52:25;;;;;;;36.08;16.90;;;3.10;99.90;;;;;;4992371;28;20471;-49
2022/12/04 10:54:58;;;;;;;29.20;15.73;;;3.10;99.90;;;;;;4996114;28;20070;-60
2022/12/04 10:57:38;;;;;;;30.02;17.20;;;3.10;99.90;;;;;;4997067;28;20193;-56
2022/12/04 11:00:30;;;;;;;30.33;16.42;;;3.20;99.90;;;;;;4998598;28;20038;-58
2022/12/04 11:02:59;;;;;;;33.40;17.55;;;3.20;99.90;;;;;;4994299;28;20068;-62
2022/12/04 11:05:31;;;;;;;32.92;16.92;;;3.20;99.90;;;;;;4995163;28;20372;-53
2022/12/04 11:07:58;;;;;;;32.45;16.42;;;3.20;99.90;;;;;;4996721;28;20034;-50
2022/12/04 11:10:33;;;;;;;27.10;14.95;;;3.20;99.90;;;;;;5001412;28;20038;-51
2022/12/04 11:13:04;;;;;;;30.60;15.77;;;3.20;99.90;;;;;;4997564;28;20495;-54
2022/12/04 11:15:34;;;;;;;34.85;17.48;;;3.10;99.90;;;;;;4983503;28;20038;-58
2022/12/04 11:18:28;;;;;;;34.67;19.10;;;3.20;99.90;;;;;;5001103;28;20031;-57
2022/12/04 11:20:57;;;;;;;38.17;18.35;;;3.20;99.90;;;;;;4999540;28;20026;-53
2022/12/04 11:23:24;;;;;;;44.35;21.27;;;3.20;99.90;;;;;;5016016;28;20022;-52
2022/12/04 11:25:52;;;;;;;29.45;16.10;;;3.20;99.90;;;;;;4987767;28;20046;-62
2022/12/04 11:28:21;;;;;;;31.60;15.57;;;3.10;99.90;;;;;;4991742;28;20044;-59
2022/12/04 11:30:51;;;;;;;36.15;17.90;;;3.20;99.90;;;;;;4991777;28;20049;-57
2022/12/04 11:33:31;;;;;;;34.10;17.90;;;3.20;99.90;;;;;;4991105;28;20026;-57
2022/12/04 11:36:01;;;;;;;34.03;17.85;;;3.20;99.90;;;;;;4992803;28;20037;-59
2022/12/04 11:38:28;;;;;;;41.72;19.02;;;3.30;99.90;;;;;;4988121;28;20022;-52
2022/12/04 11:40:56;;;;;;;37.28;18.27;;;3.30;99.90;;;;;;4996736;28;20390;-58
2022/12/04 11:43:27;;;;;;;37.10;18.38;;;3.30;99.90;;;;;;4996055;28;20015;-60
2022/12/04 11:45:59;;;;;;;35.83;16.90;;;3.40;99.90;;;;;;4999868;28;20389;-53
2022/12/04 11:48:25;;;;;;;35.28;18.42;;;3.40;99.90;;;;;;4991295;28;20096;-51
2022/12/04 11:51:15;;;;;;;39.22;18.85;;;3.40;99.90;;;;;;4991468;28;20026;-52
2022/12/04 11:53:54;;;;;;;34.25;16.90;;;3.40;99.90;;;;;;4990233;28;20023;-50
2022/12/04 11:56:34;;;;;;;35.53;17.52;;;3.40;99.90;;;;;;4987849;28;20034;-52
2022/12/04 11:59:31;;;;;;;33.60;17.83;;;3.40;99.90;;;;;;4988050;28;20065;-50
2022/12/04 12:02:14;;;;;;;35.55;17.70;;;3.40;99.90;;;;;;5009960;23;20057;-47
2022/12/04 12:04:59;;;;;;;34.25;18.23;;;3.40;99.90;;;;;;5005666;28;20409;-44
2022/12/04 12:07:50;;;;;;;36.00;17.92;;;3.30;99.90;;;;;;4990941;28;20039;-42
2022/12/04 12:10:46;;;;;;;37.45;16.80;;;3.30;99.90;;;;;;4991257;28;20223;-44
2022/12/04 12:13:31;;;;;;;35.20;18.48;;;3.40;99.90;;;;;;4990652;28;20045;-43
2022/12/04 12:16:20;;;;;;;36.15;17.52;;;3.40;99.90;;;;;;4991013;28;20390;-43
2022/12/04 12:19:03;;;;;;;33.58;16.40;;;3.40;99.90;;;;;;4989103;28;20033;-46
2022/12/04 12:21:55;;;;;;;30.70;16.48;;;3.40;99.90;;;;;;5004959;28;20161;-47
2022/12/04 12:24:27;;;;;;;34.78;18.50;;;3.40;99.90;;;;;;4989601;28;20019;-42
2022/12/04 12:26:57;;;;;;;35.72;17.55;;;3.40;99.90;;;;;;4988006;28;20053;-43
2022/12/04 12:29:28;;;;;;;34.80;17.55;;;3.40;99.90;;;;;;4986895;28;20076;-56
2022/12/04 12:32:30;;;;;;;33.30;17.58;;;3.50;99.90;;;;;;4987727;28;20029;-50
2022/12/04 12:34:56;;;;;;;34.65;17.15;;;3.50;99.90;;;;;;4989917;28;20034;-40
2022/12/04 12:37:38;;;;;;;31.38;16.70;;;3.50;99.90;;;;;;4990251;28;20085;-47
2022/12/04 12:40:14;;;;;;;31.65;16.95;;;3.40;99.90;;;;;;4990360;28;20022;-47
2022/12/04 12:42:54;;;;;;;34.53;17.27;;;3.40;99.90;;;;;;4989704;28;20525;-51
2022/12/04 12:45:32;;;;;;;32.20;17.25;;;3.40;99.90;;;;;;5003661;28;20518;-45
2022/12/04 12:48:05;;;;;;;35.72;17.15;;;3.40;99.90;;;;;;4988408;28;20536;-50
2022/12/04 12:50:54;;;;;;;37.42;19.35;;;3.50;99.90;;;;;;4990145;28;20034;-47
2022/12/04 12:53:24;;;;;;;33.95;17.25;;;3.60;99.90;;;;;;4987056;28;20034;-48
2022/12/04 12:55:53;;;;;;;36.10;16.80;;;3.50;99.90;;;;;;4990329;28;20034;-44
2022/12/04 12:58:41;;;;;;;31.10;17.13;;;3.60;99.90;;;;;;4988056;28;20117;-44
2022/12/04 13:01:38;;;;;;;32.58;17.23;;;3.50;99.90;;;;;;4989530;28;20034;-47
2022/12/04 13:04:21;;;;;;;31.33;17.25;;;3.50;99.90;;;;;;4989355;28;20033;-42
2022/12/04 13:06:53;;;;;;;35.83;17.50;;;3.50;99.90;;;;;;4989732;28;20043;-47
2022/12/04 13:09:26;;;;;;;30.33;17.08;;;3.60;99.90;;;;;;4987924;28;20110;-47
2022/12/04 13:11:58;;;;;;;32.88;17.15;;;3.60;99.90;;;;;;4989363;28;20499;-40
2022/12/04 13:14:23;;;;;;;35.45;17.83;;;3.50;99.90;;;;;;4990176;28;20026;-45